GB-0603 weather

CLOSED Upottery Air Base
England, United Kingdom

Public forecast

Using degrees Celsius for public forecast. Weather courtesy of forecast.io.

Closest aviation weather report (METAR) to Upottery Air Base

Closest report is Exeter International Airport, 13.2 nm (24.5 km) SW. Retrieved 2020/04/08 07:20 UTC (12 minutes ago):

EGTE 080720Z 00000KT CAVOK 11/07 Q1024

Closest aviation forecast (TAF) to Upottery Air Base

Forecast is more than 12 hours old.

Closest forecast is Exeter International Airport, 13.2 nm (24.5 km) SW. Retrieved 2012/04/19 12:15 UTC (8 years ago):

TAF TAF EGTE 191401Z 1912/1924 31016KT 9999 SCT030 SCT035 PROB40 TEMPO 1915/1918 7000 SHRA BKN014